createdAt,value
2022-12-27T00:01:30.204Z,100.00
2022-12-27T00:04:02.149Z,100.00
2022-12-27T00:06:32.744Z,100.00
2022-12-27T00:09:02.845Z,100.00
2022-12-27T00:11:33.193Z,100.00
2022-12-27T00:14:04.386Z,100.00
2022-12-27T00:16:35.767Z,100.00
2022-12-27T00:19:05.415Z,100.00
2022-12-27T00:21:40.600Z,100.00
2022-12-27T00:24:13.336Z,100.00
2022-12-27T00:26:45.349Z,100.00
2022-12-27T00:29:26.502Z,100.00
2022-12-27T00:31:58.468Z,100.00
2022-12-27T00:34:29.567Z,100.00
2022-12-27T00:37:00.599Z,100.00
2022-12-27T00:39:33.588Z,100.00
2022-12-27T00:42:03.121Z,100.00
2022-12-27T00:44:35.364Z,100.00
2022-12-27T00:47:05.495Z,100.00
2022-12-27T00:49:36.054Z,100.00
2022-12-27T00:52:07.773Z,100.00
2022-12-27T00:54:38.278Z,100.00
2022-12-27T00:57:10.054Z,100.00
2022-12-27T00:59:40.607Z,100.00
2022-12-27T01:02:13.413Z,100.00
2022-12-27T01:04:42.010Z,100.00
2022-12-27T01:07:12.539Z,100.00
2022-12-27T01:09:46.550Z,100.00
2022-12-27T01:12:25.602Z,100.00
2022-12-27T01:14:56.461Z,100.00
2022-12-27T01:17:26.409Z,100.00
2022-12-27T01:19:58.311Z,100.00
2022-12-27T01:22:30.193Z,100.00
2022-12-27T01:25:03.960Z,100.00
2022-12-27T01:27:34.342Z,100.00
2022-12-27T01:30:05.664Z,100.00
2022-12-27T01:32:36.474Z,100.00
2022-12-27T01:35:06.412Z,100.00
2022-12-27T01:37:40.035Z,100.00
2022-12-27T01:40:11.217Z,100.00
2022-12-27T01:42:56.978Z,100.00
2022-12-27T01:45:27.844Z,100.00
2022-12-27T01:48:02.830Z,100.00
2022-12-27T01:50:38.762Z,100.00
2022-12-27T01:53:13.400Z,100.00
2022-12-27T01:55:47.510Z,100.00
2022-12-27T01:58:23.537Z,100.00
2022-12-27T02:00:58.330Z,100.00
2022-12-27T02:03:30.966Z,100.00
2022-12-27T02:06:01.620Z,100.00
2022-12-27T02:08:43.275Z,100.00
2022-12-27T02:11:14.763Z,100.00
2022-12-27T02:13:50.974Z,100.00
2022-12-27T02:16:28.341Z,100.00
2022-12-27T02:18:58.254Z,100.00
2022-12-27T02:21:48.017Z,100.00
2022-12-27T02:24:42.719Z,100.00
2022-12-27T02:27:21.586Z,100.00
2022-12-27T02:29:59.849Z,100.00
2022-12-27T02:32:39.644Z,100.00
2022-12-27T02:35:19.528Z,100.00
2022-12-27T02:37:54.533Z,100.00
2022-12-27T02:40:49.779Z,100.00
2022-12-27T02:43:39.599Z,100.00
2022-12-27T02:46:40.910Z,100.00
2022-12-27T02:49:43.202Z,100.00
2022-12-27T02:52:36.956Z,100.00
2022-12-27T02:55:33.811Z,100.00
2022-12-27T02:58:21.494Z,100.00
2022-12-27T03:01:18.797Z,100.00
2022-12-27T03:04:12.024Z,100.00
2022-12-27T03:06:54.274Z,100.00
2022-12-27T03:10:01.571Z,100.00
2022-12-27T03:13:07.626Z,100.00
2022-12-27T03:15:59.750Z,100.00
2022-12-27T03:18:48.505Z,100.00
2022-12-27T03:21:43.695Z,100.00
2022-12-27T03:24:35.382Z,100.00
2022-12-27T03:27:18.558Z,100.00
2022-12-27T03:30:11.222Z,100.00
2022-12-27T03:33:06.029Z,100.00
2022-12-27T03:36:11.142Z,100.00
2022-12-27T03:38:50.264Z,100.00
2022-12-27T03:41:43.420Z,100.00
2022-12-27T03:44:28.304Z,100.00
2022-12-27T03:47:01.303Z,100.00
2022-12-27T03:49:41.455Z,100.00
2022-12-27T03:52:17.267Z,100.00
2022-12-27T03:54:50.768Z,100.00
2022-12-27T03:57:24.966Z,100.00
2022-12-27T03:59:58.322Z,100.00
2022-12-27T04:02:32.220Z,100.00
2022-12-27T04:05:04.651Z,100.00
2022-12-27T04:07:47.305Z,100.00
2022-12-27T04:10:37.310Z,100.00
2022-12-27T04:13:26.007Z,100.00
2022-12-27T04:16:14.849Z,100.00
2022-12-27T04:19:02.136Z,100.00
2022-12-27T04:21:55.420Z,100.00
2022-12-27T04:24:41.656Z,100.00
2022-12-27T04:27:34.875Z,100.00
2022-12-27T04:30:25.310Z,100.00
2022-12-27T04:33:14.733Z,100.00
2022-12-27T04:35:49.404Z,100.00
2022-12-27T04:38:21.659Z,100.00
2022-12-27T04:41:10.199Z,100.00
2022-12-27T04:43:59.141Z,100.00
2022-12-27T04:46:47.800Z,100.00
2022-12-27T04:49:42.102Z,100.00
2022-12-27T04:52:36.394Z,100.00
2022-12-27T04:55:17.660Z,100.00
2022-12-27T04:57:57.333Z,100.00
2022-12-27T05:00:50.659Z,100.00
2022-12-27T05:03:28.624Z,100.00
2022-12-27T05:06:09.213Z,100.00
2022-12-27T05:09:02.295Z,100.00
2022-12-27T05:11:52.985Z,100.00
2022-12-27T05:14:35.539Z,100.00
2022-12-27T05:17:15.557Z,100.00
2022-12-27T05:19:53.251Z,100.00
2022-12-27T05:25:49.360Z,100.00
2022-12-27T05:28:24.818Z,100.00
2022-12-27T05:31:03.873Z,100.00
2022-12-27T05:33:47.861Z,100.00
2022-12-27T05:36:20.932Z,100.00
2022-12-27T05:38:56.372Z,100.00
2022-12-27T05:41:28.748Z,100.00
2022-12-27T05:44:07.892Z,100.00
2022-12-27T05:46:40.177Z,100.00
2022-12-27T05:49:15.648Z,100.00
2022-12-27T05:51:48.467Z,100.00
2022-12-27T05:54:29.289Z,100.00
2022-12-27T05:57:03.450Z,100.00
2022-12-27T05:59:38.265Z,100.00
2022-12-27T06:02:11.706Z,100.00
2022-12-27T06:04:53.974Z,100.00
2022-12-27T06:07:32.535Z,100.00
2022-12-27T06:10:04.435Z,100.00
2022-12-27T06:12:41.896Z,100.00
2022-12-27T06:15:12.999Z,100.00
2022-12-27T06:17:44.145Z,100.00
2022-12-27T06:20:19.012Z,100.00
2022-12-27T06:22:50.777Z,100.00
2022-12-27T06:25:21.977Z,100.00
2022-12-27T06:27:52.683Z,100.00
2022-12-27T06:30:24.161Z,100.00
2022-12-27T06:32:55.824Z,100.00
2022-12-27T06:35:32.964Z,100.00
2022-12-27T06:38:03.175Z,100.00
2022-12-27T06:40:33.881Z,100.00
2022-12-27T06:43:05.115Z,100.00
2022-12-27T06:45:42.474Z,100.00
2022-12-27T06:48:14.582Z,100.00
2022-12-27T06:50:51.788Z,100.00
2022-12-27T06:53:27.880Z,100.00
2022-12-27T06:56:25.030Z,100.00
2022-12-27T06:58:55.450Z,100.00
2022-12-27T07:01:29.924Z,100.00
2022-12-27T07:04:05.736Z,100.00
2022-12-27T07:06:39.805Z,100.00
2022-12-27T07:09:15.433Z,100.00
2022-12-27T07:11:54.372Z,100.00
2022-12-27T07:14:26.461Z,100.00
2022-12-27T07:16:59.762Z,100.00
2022-12-27T07:19:30.044Z,100.00
2022-12-27T07:22:01.162Z,100.00
2022-12-27T07:24:34.235Z,100.00
2022-12-27T07:27:11.103Z,100.00
2022-12-27T07:29:45.902Z,100.00
2022-12-27T07:32:17.520Z,100.00
2022-12-27T07:34:50.632Z,100.00
2022-12-27T07:37:24.563Z,100.00
2022-12-27T07:40:06.664Z,100.00
2022-12-27T07:42:42.278Z,100.00
2022-12-27T07:45:14.504Z,100.00
2022-12-27T07:47:48.983Z,100.00
2022-12-27T07:50:21.590Z,100.00
2022-12-27T07:52:57.428Z,100.00
2022-12-27T07:55:32.639Z,100.00
2022-12-27T07:58:08.223Z,100.00
2022-12-27T08:00:40.645Z,100.00
2022-12-27T08:03:13.339Z,100.00
2022-12-27T08:05:47.551Z,100.00
2022-12-27T08:08:38.016Z,100.00
2022-12-27T08:11:09.695Z,100.00
2022-12-27T08:13:40.641Z,100.00
2022-12-27T08:16:18.473Z,100.00
2022-12-27T08:18:50.088Z,100.00
2022-12-27T08:21:24.758Z,100.00
2022-12-27T08:24:02.208Z,100.00
2022-12-27T08:26:31.194Z,100.00
2022-12-27T08:29:02.755Z,100.00
2022-12-27T08:31:35.295Z,100.00
2022-12-27T08:34:10.850Z,100.00
2022-12-27T08:36:55.261Z,100.00
2022-12-27T08:39:27.455Z,100.00
2022-12-27T08:41:57.166Z,100.00
2022-12-27T08:44:32.396Z,100.00
2022-12-27T08:47:04.907Z,100.00
2022-12-27T08:49:40.155Z,100.00
2022-12-27T08:52:20.697Z,100.00
2022-12-27T08:54:51.557Z,100.00
2022-12-27T08:57:27.957Z,100.00
2022-12-27T08:59:58.255Z,100.00
2022-12-27T09:02:34.891Z,100.00
2022-12-27T09:05:10.444Z,100.00
2022-12-27T09:07:46.131Z,100.00
2022-12-27T09:10:25.686Z,100.00
2022-12-27T09:12:55.253Z,100.00
2022-12-27T09:15:30.638Z,100.00
2022-12-27T09:17:59.505Z,100.00
2022-12-27T09:20:31.644Z,96.71
2022-12-27T09:23:06.591Z,96.38
2022-12-27T09:25:42.683Z,90.15
2022-12-27T09:28:12.039Z,89.38
2022-12-27T09:30:43.586Z,86.88
2022-12-27T09:33:12.564Z,81.25
2022-12-27T09:35:42.332Z,78.87
2022-12-27T09:38:11.183Z,83.28
2022-12-27T09:40:54.612Z,79.36
2022-12-27T09:43:27.782Z,75.71
2022-12-27T09:46:03.374Z,73.97
2022-12-27T09:48:39.699Z,68.74
2022-12-27T09:51:15.521Z,68.89
2022-12-27T09:53:50.411Z,69.61
2022-12-27T09:56:35.689Z,71.17
2022-12-27T09:59:19.435Z,65.91
2022-12-27T10:01:49.292Z,66.56
2022-12-27T10:04:22.781Z,60.67
2022-12-27T10:07:10.764Z,59.54
2022-12-27T10:09:49.724Z,59.65
2022-12-27T10:12:36.948Z,55.91
2022-12-27T10:15:16.403Z,56.46
2022-12-27T10:17:53.575Z,53.67
2022-12-27T10:20:35.024Z,52.58
2022-12-27T10:23:07.934Z,52.72
2022-12-27T10:25:42.103Z,50.96
2022-12-27T10:28:17.922Z,51.32
2022-12-27T10:30:47.993Z,51.61
2022-12-27T10:33:23.670Z,50.74
2022-12-27T10:35:54.641Z,49.66
2022-12-27T10:38:25.627Z,49.77
2022-12-27T10:41:01.008Z,49.32
2022-12-27T10:43:35.274Z,47.88
2022-12-27T10:46:14.410Z,45.73
2022-12-27T10:49:21.233Z,45.39
2022-12-27T10:51:49.397Z,44.68
2022-12-27T10:54:28.459Z,44.36
2022-12-27T10:56:59.943Z,43.02
2022-12-27T10:59:31.359Z,41.85
2022-12-27T11:02:19.019Z,41.25
2022-12-27T11:05:11.646Z,40.77
2022-12-27T11:07:44.342Z,41.36
2022-12-27T11:10:18.522Z,39.58
2022-12-27T11:13:08.515Z,39.05
2022-12-27T11:15:42.421Z,40.35
2022-12-27T11:18:18.681Z,40.63
2022-12-27T11:20:51.330Z,38.76
2022-12-27T11:23:26.562Z,39.45
2022-12-27T11:25:59.100Z,38.41
2022-12-27T11:28:34.337Z,43.01
2022-12-27T11:31:09.260Z,42.27
2022-12-27T11:33:44.976Z,41.81
2022-12-27T11:36:17.678Z,40.87
2022-12-27T11:38:52.635Z,40.29
2022-12-27T11:41:27.859Z,40.50
2022-12-27T11:44:02.797Z,39.54
2022-12-27T11:46:57.006Z,39.19
2022-12-27T11:49:34.807Z,39.61
2022-12-27T11:52:20.171Z,38.68
2022-12-27T11:55:06.819Z,38.37
2022-12-27T11:57:57.782Z,38.04
2022-12-27T12:00:32.913Z,37.97
2022-12-27T12:03:31.740Z,38.09
2022-12-27T12:06:17.500Z,38.06
2022-12-27T12:09:19.115Z,40.19
2022-12-27T12:12:06.601Z,41.01
2022-12-27T12:15:24.592Z,42.42
2022-12-27T12:18:03.460Z,42.17
2022-12-27T12:21:10.822Z,44.76
2022-12-27T12:24:09.789Z,48.59
2022-12-27T12:26:55.722Z,50.62
2022-12-27T12:29:41.929Z,50.82
2022-12-27T12:32:36.264Z,51.20
2022-12-27T12:35:34.799Z,52.99
2022-12-27T12:38:13.775Z,55.72
2022-12-27T12:41:24.933Z,56.81
2022-12-27T12:44:41.150Z,55.79
2022-12-27T12:47:24.770Z,56.46
2022-12-27T12:50:13.336Z,56.77
2022-12-27T12:53:10.284Z,57.91
2022-12-27T12:55:53.820Z,59.00
2022-12-27T12:59:07.469Z,60.86
2022-12-27T13:01:54.301Z,60.54
2022-12-27T13:04:42.333Z,61.82
2022-12-27T13:07:39.308Z,60.86
2022-12-27T13:10:35.831Z,56.39
2022-12-27T13:13:13.097Z,54.16
2022-12-27T13:15:54.479Z,52.93
2022-12-27T13:18:30.705Z,53.36
2022-12-27T13:21:09.121Z,52.40
2022-12-27T13:23:54.825Z,51.37
2022-12-27T13:26:37.467Z,53.08
2022-12-27T13:29:30.616Z,53.52
2022-12-27T13:32:16.925Z,53.42
2022-12-27T13:34:56.515Z,52.98
2022-12-27T13:41:06.826Z,57.54
2022-12-27T13:43:51.856Z,62.77
2022-12-27T13:49:39.961Z,87.92
2022-12-27T13:52:18.153Z,100.00
2022-12-27T13:55:31.232Z,100.00
2022-12-27T13:58:30.640Z,100.00
2022-12-27T14:01:17.032Z,100.00
2022-12-27T14:04:06.701Z,100.00
2022-12-27T14:07:15.105Z,100.00
2022-12-27T14:10:04.977Z,100.00
2022-12-27T14:13:03.798Z,100.00
2022-12-27T14:15:59.360Z,100.00
2022-12-27T14:18:46.427Z,100.00
2022-12-27T14:21:53.204Z,100.00
2022-12-27T14:24:58.237Z,100.00
2022-12-27T14:28:08.580Z,100.00
2022-12-27T14:31:10.672Z,100.00
2022-12-27T14:34:04.051Z,100.00
2022-12-27T14:37:05.757Z,100.00
2022-12-27T14:40:16.361Z,100.00
2022-12-27T14:43:13.933Z,100.00
2022-12-27T14:46:26.311Z,100.00
2022-12-27T14:49:39.833Z,100.00
2022-12-27T14:52:43.164Z,100.00
2022-12-27T14:55:28.058Z,100.00
2022-12-27T14:58:18.022Z,100.00
2022-12-27T15:01:07.986Z,100.00
2022-12-27T15:04:07.697Z,100.00
2022-12-27T15:07:02.886Z,100.00
2022-12-27T15:09:38.885Z,100.00
2022-12-27T15:12:20.031Z,100.00
2022-12-27T15:15:08.757Z,100.00
2022-12-27T15:18:20.600Z,100.00
2022-12-27T15:21:12.344Z,100.00
2022-12-27T15:23:54.272Z,100.00
2022-12-27T15:26:36.701Z,100.00
2022-12-27T15:29:27.720Z,100.00
2022-12-27T15:32:08.152Z,100.00
2022-12-27T15:34:48.347Z,100.00
2022-12-27T15:38:03.832Z,100.00
2022-12-27T15:41:00.010Z,100.00
2022-12-27T15:43:54.478Z,100.00
2022-12-27T15:46:41.564Z,100.00
2022-12-27T15:49:35.324Z,100.00
2022-12-27T15:52:14.911Z,100.00
2022-12-27T15:55:03.369Z,100.00
2022-12-27T15:58:29.019Z,100.00
2022-12-27T16:01:43.795Z,100.00
2022-12-27T16:05:05.949Z,100.00
2022-12-27T16:07:57.218Z,100.00
2022-12-27T16:11:05.625Z,100.00
2022-12-27T16:13:55.916Z,100.00
2022-12-27T16:17:01.222Z,100.00
2022-12-27T16:19:56.011Z,100.00
2022-12-27T16:22:34.611Z,100.00
2022-12-27T16:25:50.776Z,100.00
2022-12-27T16:28:33.504Z,100.00
2022-12-27T16:31:12.896Z,100.00
2022-12-27T16:33:44.001Z,100.00
2022-12-27T16:36:20.697Z,100.00
2022-12-27T16:39:10.866Z,100.00
2022-12-27T16:42:05.421Z,100.00
2022-12-27T16:45:11.946Z,100.00
2022-12-27T16:48:10.339Z,100.00
2022-12-27T16:50:50.541Z,100.00
2022-12-27T16:53:45.326Z,100.00
2022-12-27T16:56:24.371Z,100.00
2022-12-27T16:58:54.062Z,100.00
2022-12-27T17:02:02.020Z,100.00
2022-12-27T17:05:02.303Z,100.00
2022-12-27T17:07:53.087Z,100.00
2022-12-27T17:11:07.632Z,100.00
2022-12-27T17:13:53.675Z,100.00
2022-12-27T17:19:34.490Z,100.00
2022-12-27T17:22:13.345Z,100.00
2022-12-27T17:25:16.536Z,100.00
2022-12-27T17:28:14.101Z,100.00
2022-12-27T17:30:49.524Z,100.00
2022-12-27T17:33:38.680Z,100.00
2022-12-27T17:36:17.239Z,100.00
2022-12-27T17:38:56.401Z,100.00
2022-12-27T17:41:57.331Z,100.00
2022-12-27T17:44:42.124Z,100.00
2022-12-27T17:47:32.229Z,100.00
2022-12-27T17:50:05.496Z,100.00
2022-12-27T17:52:55.331Z,100.00
2022-12-27T17:56:19.791Z,100.00
2022-12-27T17:59:02.771Z,100.00
2022-12-27T18:01:41.254Z,100.00
2022-12-27T18:04:38.904Z,100.00
2022-12-27T18:07:10.850Z,100.00
2022-12-27T18:09:44.559Z,100.00
2022-12-27T18:12:17.624Z,100.00
2022-12-27T18:14:51.954Z,100.00
2022-12-27T18:17:28.923Z,100.00
2022-12-27T18:19:58.177Z,100.00
2022-12-27T18:22:27.346Z,100.00
2022-12-27T18:24:56.011Z,100.00
2022-12-27T18:27:28.078Z,100.00
2022-12-27T18:29:58.479Z,100.00
2022-12-27T18:32:27.245Z,100.00
2022-12-27T18:34:57.726Z,100.00
2022-12-27T18:37:27.416Z,100.00
2022-12-27T18:39:58.911Z,100.00
2022-12-27T18:42:30.974Z,100.00
2022-12-27T18:45:04.485Z,100.00
2022-12-27T18:47:36.064Z,100.00
2022-12-27T18:50:07.176Z,100.00
2022-12-27T18:52:40.110Z,100.00
2022-12-27T18:55:17.632Z,100.00
2022-12-27T18:57:47.020Z,100.00
2022-12-27T19:00:28.089Z,100.00
2022-12-27T19:03:14.628Z,100.00
2022-12-27T19:05:58.590Z,100.00
2022-12-27T19:08:29.016Z,100.00
2022-12-27T19:10:57.844Z,100.00
2022-12-27T19:13:29.625Z,100.00
2022-12-27T19:16:01.786Z,100.00
2022-12-27T19:18:34.404Z,100.00
2022-12-27T19:21:06.460Z,100.00
2022-12-27T19:23:38.382Z,100.00
2022-12-27T19:26:24.439Z,100.00
2022-12-27T19:29:02.384Z,100.00
2022-12-27T19:31:37.158Z,100.00
2022-12-27T19:34:09.523Z,100.00
2022-12-27T19:36:40.335Z,100.00
2022-12-27T19:39:17.678Z,100.00
2022-12-27T19:41:47.007Z,100.00
2022-12-27T19:44:17.394Z,100.00
2022-12-27T19:46:48.883Z,100.00
2022-12-27T19:52:10.782Z,100.00
2022-12-27T19:54:39.949Z,100.00
2022-12-27T19:57:10.514Z,100.00
2022-12-27T19:59:39.872Z,100.00
2022-12-27T20:02:17.534Z,100.00
2022-12-27T20:04:54.873Z,100.00
2022-12-27T20:07:26.541Z,100.00
2022-12-27T20:09:55.281Z,100.00
2022-12-27T20:12:28.314Z,100.00
2022-12-27T20:14:58.539Z,100.00
2022-12-27T20:17:32.596Z,100.00
2022-12-27T20:20:02.073Z,100.00
2022-12-27T20:22:31.972Z,100.00
2022-12-27T20:25:03.572Z,100.00
2022-12-27T20:27:33.791Z,100.00
2022-12-27T20:30:04.846Z,100.00
2022-12-27T20:32:34.783Z,100.00
2022-12-27T20:35:04.001Z,100.00
2022-12-27T20:37:33.745Z,100.00
2022-12-27T20:40:02.589Z,100.00
2022-12-27T20:42:32.802Z,100.00
2022-12-27T20:45:02.687Z,100.00
2022-12-27T20:47:32.055Z,100.00
2022-12-27T20:50:05.382Z,100.00
2022-12-27T20:52:34.453Z,100.00
2022-12-27T20:55:02.822Z,100.00
2022-12-27T20:57:36.899Z,100.00
2022-12-27T21:00:07.557Z,100.00
2022-12-27T21:02:36.514Z,100.00
2022-12-27T21:05:07.946Z,100.00
2022-12-27T21:07:37.486Z,100.00
2022-12-27T21:10:09.407Z,100.00
2022-12-27T21:12:40.279Z,100.00
2022-12-27T21:15:10.991Z,100.00
2022-12-27T21:17:40.411Z,100.00
2022-12-27T21:20:13.822Z,100.00
2022-12-27T21:22:42.533Z,100.00
2022-12-27T21:25:11.256Z,100.00
2022-12-27T21:27:40.280Z,100.00
2022-12-27T21:30:12.120Z,100.00
2022-12-27T21:32:40.679Z,100.00
2022-12-27T21:35:15.614Z,100.00
2022-12-27T21:37:43.979Z,100.00
2022-12-27T21:40:13.591Z,100.00
2022-12-27T21:42:41.971Z,100.00
2022-12-27T21:45:10.964Z,100.00
2022-12-27T21:47:39.520Z,100.00
2022-12-27T21:50:08.165Z,100.00
2022-12-27T21:52:37.962Z,100.00
2022-12-27T21:55:06.881Z,100.00
2022-12-27T21:57:35.298Z,100.00
2022-12-27T22:00:03.777Z,100.00
2022-12-27T22:02:33.184Z,100.00
2022-12-27T22:05:01.633Z,100.00
2022-12-27T22:07:30.195Z,100.00
2022-12-27T22:09:59.959Z,100.00
2022-12-27T22:12:28.364Z,100.00
2022-12-27T22:14:56.657Z,100.00
2022-12-27T22:17:25.120Z,100.00
2022-12-27T22:19:54.480Z,100.00
2022-12-27T22:22:22.829Z,100.00
2022-12-27T22:24:52.563Z,100.00
2022-12-27T22:27:22.381Z,100.00
2022-12-27T22:29:50.792Z,100.00
2022-12-27T22:32:19.135Z,100.00
2022-12-27T22:34:47.523Z,100.00
2022-12-27T22:37:16.190Z,100.00
2022-12-27T22:39:44.752Z,100.00
2022-12-27T22:42:13.059Z,100.00
2022-12-27T22:44:43.842Z,100.00
2022-12-27T22:47:28.327Z,100.00
2022-12-27T22:49:57.153Z,100.00
2022-12-27T22:52:25.587Z,100.00
2022-12-27T22:55:04.140Z,100.00
2022-12-27T22:57:36.215Z,100.00
2022-12-27T23:00:09.576Z,100.00
2022-12-27T23:02:38.229Z,100.00
2022-12-27T23:05:08.610Z,100.00
2022-12-27T23:08:04.646Z,100.00
2022-12-27T23:10:25.753Z,100.00
2022-12-27T23:12:54.260Z,100.00
2022-12-27T23:15:24.147Z,100.00
2022-12-27T23:17:53.741Z,100.00
2022-12-27T23:20:22.285Z,100.00
2022-12-27T23:22:51.187Z,100.00
2022-12-27T23:25:19.611Z,100.00
2022-12-27T23:27:48.011Z,100.00
2022-12-27T23:30:16.683Z,100.00
2022-12-27T23:32:46.518Z,100.00
2022-12-27T23:35:15.224Z,100.00
2022-12-27T23:37:43.559Z,100.00
2022-12-27T23:40:13.086Z,100.00
2022-12-27T23:42:41.633Z,100.00
2022-12-27T23:45:12.429Z,100.00
2022-12-27T23:47:41.266Z,100.00
2022-12-27T23:50:15.825Z,100.00
2022-12-27T23:52:48.342Z,100.00
2022-12-27T23:55:18.294Z,100.00
2022-12-27T23:57:46.788Z,100.00
